sensor_id;sensor_type;location;lat;lon;timestamp;P1;durP1;ratioP1;P2;durP2;ratioP2
9823;SDS011;4951;50.778;7.196;2023-04-25T00:01:59;9.50;;;4.60;;
9823;SDS011;4951;50.778;7.196;2023-04-25T00:04:39;8.30;;;4.53;;
9823;SDS011;4951;50.778;7.196;2023-04-25T00:07:29;9.00;;;5.07;;
9823;SDS011;4951;50.778;7.196;2023-04-25T00:10:10;8.80;;;4.63;;
9823;SDS011;4951;50.778;7.196;2023-04-25T00:12:38;7.23;;;4.40;;
9823;SDS011;4951;50.778;7.196;2023-04-25T00:15:25;10.00;;;4.67;;
9823;SDS011;4951;50.778;7.196;2023-04-25T00:18:28;8.97;;;4.00;;
9823;SDS011;4951;50.778;7.196;2023-04-25T00:21:37;9.33;;;3.40;;
9823;SDS011;4951;50.778;7.196;2023-04-25T00:24:22;7.53;;;3.67;;
9823;SDS011;4951;50.778;7.196;2023-04-25T00:27:06;10.03;;;4.57;;
9823;SDS011;4951;50.778;7.196;2023-04-25T00:29:34;7.53;;;4.43;;
9823;SDS011;4951;50.778;7.196;2023-04-25T00:32:10;9.30;;;4.30;;
9823;SDS011;4951;50.778;7.196;2023-04-25T00:34:50;11.20;;;4.83;;
9823;SDS011;4951;50.778;7.196;2023-04-25T00:40:25;7.00;;;3.97;;
9823;SDS011;4951;50.778;7.196;2023-04-25T00:43:01;7.53;;;4.00;;
9823;SDS011;4951;50.778;7.196;2023-04-25T00:45:29;8.67;;;4.10;;
9823;SDS011;4951;50.778;7.196;2023-04-25T00:48:08;7.83;;;4.57;;
9823;SDS011;4951;50.778;7.196;2023-04-25T00:50:48;8.77;;;4.10;;
9823;SDS011;4951;50.778;7.196;2023-04-25T00:53:33;11.47;;;5.03;;
9823;SDS011;4951;50.778;7.196;2023-04-25T00:56:10;11.17;;;4.30;;
9823;SDS011;4951;50.778;7.196;2023-04-25T00:59:18;9.20;;;4.23;;
9823;SDS011;4951;50.778;7.196;2023-04-25T01:01:52;13.70;;;4.57;;
9823;SDS011;4951;50.778;7.196;2023-04-25T01:04:35;5.97;;;3.77;;
9823;SDS011;4951;50.778;7.196;2023-04-25T01:07:07;8.27;;;4.23;;
9823;SDS011;4951;50.778;7.196;2023-04-25T01:09:48;10.50;;;3.90;;
9823;SDS011;4951;50.778;7.196;2023-04-25T01:12:41;8.23;;;4.57;;
9823;SDS011;4951;50.778;7.196;2023-04-25T01:15:25;10.57;;;4.10;;
9823;SDS011;4951;50.778;7.196;2023-04-25T01:18:05;7.13;;;4.47;;
9823;SDS011;4951;50.778;7.196;2023-04-25T01:20:37;10.43;;;4.10;;
9823;SDS011;4951;50.778;7.196;2023-04-25T01:23:31;6.40;;;3.57;;
9823;SDS011;4951;50.778;7.196;2023-04-25T01:26:15;10.37;;;4.03;;
9823;SDS011;4951;50.778;7.196;2023-04-25T01:28:50;10.03;;;4.57;;
9823;SDS011;4951;50.778;7.196;2023-04-25T01:31:43;10.90;;;4.63;;
9823;SDS011;4951;50.778;7.196;2023-04-25T01:34:12;7.73;;;4.10;;
9823;SDS011;4951;50.778;7.196;2023-04-25T01:36:46;10.83;;;4.47;;
9823;SDS011;4951;50.778;7.196;2023-04-25T01:39:31;6.80;;;4.33;;
9823;SDS011;4951;50.778;7.196;2023-04-25T01:42:13;9.70;;;4.33;;
9823;SDS011;4951;50.778;7.196;2023-04-25T01:44:59;10.27;;;4.93;;
9823;SDS011;4951;50.778;7.196;2023-04-25T01:47:33;7.33;;;4.73;;
9823;SDS011;4951;50.778;7.196;2023-04-25T01:50:20;11.07;;;4.60;;
9823;SDS011;4951;50.778;7.196;2023-04-25T01:52:56;10.37;;;5.87;;
9823;SDS011;4951;50.778;7.196;2023-04-25T01:55:30;8.83;;;4.57;;
9823;SDS011;4951;50.778;7.196;2023-04-25T01:58:19;10.30;;;4.83;;
9823;SDS011;4951;50.778;7.196;2023-04-25T02:01:16;9.37;;;4.67;;
9823;SDS011;4951;50.778;7.196;2023-04-25T02:04:17;13.60;;;5.93;;
9823;SDS011;4951;50.778;7.196;2023-04-25T02:06:58;14.47;;;4.97;;
9823;SDS011;4951;50.778;7.196;2023-04-25T02:09:37;11.63;;;6.10;;
9823;SDS011;4951;50.778;7.196;2023-04-25T02:12:11;11.03;;;5.13;;
9823;SDS011;4951;50.778;7.196;2023-04-25T02:15:29;12.80;;;5.60;;
9823;SDS011;4951;50.778;7.196;2023-04-25T02:18:16;11.60;;;4.90;;
9823;SDS011;4951;50.778;7.196;2023-04-25T02:20:49;14.20;;;5.60;;
9823;SDS011;4951;50.778;7.196;2023-04-25T02:23:51;13.87;;;6.00;;
9823;SDS011;4951;50.778;7.196;2023-04-25T02:26:20;12.93;;;4.93;;
9823;SDS011;4951;50.778;7.196;2023-04-25T02:29:01;15.17;;;5.97;;
9823;SDS011;4951;50.778;7.196;2023-04-25T02:31:45;14.83;;;5.10;;
9823;SDS011;4951;50.778;7.196;2023-04-25T02:34:16;17.07;;;6.47;;
9823;SDS011;4951;50.778;7.196;2023-04-25T02:36:49;9.30;;;5.60;;
9823;SDS011;4951;50.778;7.196;2023-04-25T02:39:21;13.47;;;5.80;;
9823;SDS011;4951;50.778;7.196;2023-04-25T02:41:56;11.07;;;5.83;;
9823;SDS011;4951;50.778;7.196;2023-04-25T02:45:11;17.67;;;6.30;;
9823;SDS011;4951;50.778;7.196;2023-04-25T02:48:06;11.90;;;5.90;;
9823;SDS011;4951;50.778;7.196;2023-04-25T02:50:39;13.93;;;5.43;;
9823;SDS011;4951;50.778;7.196;2023-04-25T02:53:08;14.03;;;6.07;;
9823;SDS011;4951;50.778;7.196;2023-04-25T02:55:53;14.10;;;5.10;;
9823;SDS011;4951;50.778;7.196;2023-04-25T02:58:45;14.20;;;6.03;;
9823;SDS011;4951;50.778;7.196;2023-04-25T03:01:15;11.67;;;5.83;;
9823;SDS011;4951;50.778;7.196;2023-04-25T03:03:48;12.50;;;6.40;;
9823;SDS011;4951;50.778;7.196;2023-04-25T03:06:47;16.53;;;6.23;;
9823;SDS011;4951;50.778;7.196;2023-04-25T03:09:50;13.23;;;5.77;;
9823;SDS011;4951;50.778;7.196;2023-04-25T03:12:47;16.83;;;7.00;;
9823;SDS011;4951;50.778;7.196;2023-04-25T03:15:43;14.80;;;6.37;;
9823;SDS011;4951;50.778;7.196;2023-04-25T03:19:10;15.10;;;6.30;;
9823;SDS011;4951;50.778;7.196;2023-04-25T03:21:54;12.80;;;6.43;;
9823;SDS011;4951;50.778;7.196;2023-04-25T03:25:06;14.10;;;6.50;;
9823;SDS011;4951;50.778;7.196;2023-04-25T03:27:52;13.50;;;6.37;;
9823;SDS011;4951;50.778;7.196;2023-04-25T03:30:25;17.57;;;6.03;;
9823;SDS011;4951;50.778;7.196;2023-04-25T03:32:59;11.63;;;5.57;;
9823;SDS011;4951;50.778;7.196;2023-04-25T03:35:50;13.23;;;7.33;;
9823;SDS011;4951;50.778;7.196;2023-04-25T03:38:29;11.87;;;5.47;;
9823;SDS011;4951;50.778;7.196;2023-04-25T03:40:58;10.60;;;5.43;;
9823;SDS011;4951;50.778;7.196;2023-04-25T03:43:58;11.43;;;5.07;;
9823;SDS011;4951;50.778;7.196;2023-04-25T03:50:01;15.27;;;5.50;;
9823;SDS011;4951;50.778;7.196;2023-04-25T03:52:35;13.60;;;5.93;;
9823;SDS011;4951;50.778;7.196;2023-04-25T03:55:09;11.80;;;5.53;;
9823;SDS011;4951;50.778;7.196;2023-04-25T03:57:39;13.17;;;5.10;;
9823;SDS011;4951;50.778;7.196;2023-04-25T04:00:16;12.43;;;6.13;;
9823;SDS011;4951;50.778;7.196;2023-04-25T04:02:58;12.03;;;5.13;;
9823;SDS011;4951;50.778;7.196;2023-04-25T04:11:09;14.37;;;6.70;;
9823;SDS011;4951;50.778;7.196;2023-04-25T04:13:48;12.93;;;7.07;;
9823;SDS011;4951;50.778;7.196;2023-04-25T04:16:18;15.70;;;6.27;;
9823;SDS011;4951;50.778;7.196;2023-04-25T04:18:59;17.63;;;6.93;;
9823;SDS011;4951;50.778;7.196;2023-04-25T04:21:45;19.77;;;7.47;;
9823;SDS011;4951;50.778;7.196;2023-04-25T04:24:21;13.43;;;6.83;;
9823;SDS011;4951;50.778;7.196;2023-04-25T04:27:20;17.37;;;7.57;;
9823;SDS011;4951;50.778;7.196;2023-04-25T04:30:23;15.53;;;6.80;;
9823;SDS011;4951;50.778;7.196;2023-04-25T04:33:07;15.70;;;7.37;;
9823;SDS011;4951;50.778;7.196;2023-04-25T04:35:51;15.97;;;7.10;;
9823;SDS011;4951;50.778;7.196;2023-04-25T04:38:36;14.03;;;7.10;;
9823;SDS011;4951;50.778;7.196;2023-04-25T04:41:09;16.57;;;7.50;;
9823;SDS011;4951;50.778;7.196;2023-04-25T04:44:09;13.03;;;7.77;;
9823;SDS011;4951;50.778;7.196;2023-04-25T04:46:43;18.37;;;7.57;;
9823;SDS011;4951;50.778;7.196;2023-04-25T04:49:29;17.80;;;7.63;;
9823;SDS011;4951;50.778;7.196;2023-04-25T04:52:47;13.23;;;6.63;;
9823;SDS011;4951;50.778;7.196;2023-04-25T04:55:38;16.60;;;6.77;;
9823;SDS011;4951;50.778;7.196;2023-04-25T04:59:26;13.47;;;6.53;;
9823;SDS011;4951;50.778;7.196;2023-04-25T05:02:20;18.83;;;7.40;;
9823;SDS011;4951;50.778;7.196;2023-04-25T05:05:10;15.17;;;7.60;;
9823;SDS011;4951;50.778;7.196;2023-04-25T05:08:16;15.63;;;7.07;;
9823;SDS011;4951;50.778;7.196;2023-04-25T05:11:30;12.67;;;6.90;;
9823;SDS011;4951;50.778;7.196;2023-04-25T05:14:27;12.63;;;6.73;;
9823;SDS011;4951;50.778;7.196;2023-04-25T05:17:18;13.30;;;6.23;;
9823;SDS011;4951;50.778;7.196;2023-04-25T05:20:13;15.97;;;6.83;;
9823;SDS011;4951;50.778;7.196;2023-04-25T05:23:03;12.70;;;6.30;;
9823;SDS011;4951;50.778;7.196;2023-04-25T05:25:51;13.13;;;6.60;;
9823;SDS011;4951;50.778;7.196;2023-04-25T05:28:33;13.30;;;6.60;;
9823;SDS011;4951;50.778;7.196;2023-04-25T05:31:24;12.63;;;7.33;;
9823;SDS011;4951;50.778;7.196;2023-04-25T05:34:00;10.00;;;6.00;;
9823;SDS011;4951;50.778;7.196;2023-04-25T05:36:53;18.00;;;7.33;;
9823;SDS011;4951;50.778;7.196;2023-04-25T05:39:20;9.83;;;6.07;;
9823;SDS011;4951;50.778;7.196;2023-04-25T05:42:26;12.47;;;6.50;;
9823;SDS011;4951;50.778;7.196;2023-04-25T05:45:07;14.90;;;7.87;;
9823;SDS011;4951;50.778;7.196;2023-04-25T05:48:05;12.47;;;7.13;;
9823;SDS011;4951;50.778;7.196;2023-04-25T05:50:59;14.53;;;7.33;;
9823;SDS011;4951;50.778;7.196;2023-04-25T05:56:36;17.67;;;6.37;;
9823;SDS011;4951;50.778;7.196;2023-04-25T05:59:11;16.43;;;6.83;;
9823;SDS011;4951;50.778;7.196;2023-04-25T06:02:04;15.57;;;6.90;;
9823;SDS011;4951;50.778;7.196;2023-04-25T06:05:01;15.87;;;5.53;;
9823;SDS011;4951;50.778;7.196;2023-04-25T06:07:33;12.90;;;6.30;;
9823;SDS011;4951;50.778;7.196;2023-04-25T06:10:09;16.73;;;6.47;;
9823;SDS011;4951;50.778;7.196;2023-04-25T06:12:44;13.07;;;6.17;;
9823;SDS011;4951;50.778;7.196;2023-04-25T06:15:23;14.30;;;6.30;;
9823;SDS011;4951;50.778;7.196;2023-04-25T06:18:29;16.63;;;6.77;;
9823;SDS011;4951;50.778;7.196;2023-04-25T06:21:16;12.93;;;5.83;;
9823;SDS011;4951;50.778;7.196;2023-04-25T06:23:55;14.87;;;6.50;;
9823;SDS011;4951;50.778;7.196;2023-04-25T06:26:33;14.90;;;6.70;;
9823;SDS011;4951;50.778;7.196;2023-04-25T06:29:19;19.27;;;7.13;;
9823;SDS011;4951;50.778;7.196;2023-04-25T06:31:59;18.87;;;6.53;;
9823;SDS011;4951;50.778;7.196;2023-04-25T06:38:53;16.60;;;6.97;;
9823;SDS011;4951;50.778;7.196;2023-04-25T06:41:29;21.03;;;7.60;;
9823;SDS011;4951;50.778;7.196;2023-04-25T06:44:58;20.07;;;6.90;;
9823;SDS011;4951;50.778;7.196;2023-04-25T06:47:28;14.77;;;6.73;;
9823;SDS011;4951;50.778;7.196;2023-04-25T06:50:01;14.93;;;6.93;;
9823;SDS011;4951;50.778;7.196;2023-04-25T06:52:54;17.47;;;7.37;;
9823;SDS011;4951;50.778;7.196;2023-04-25T06:59:21;12.40;;;6.13;;
9823;SDS011;4951;50.778;7.196;2023-04-25T07:02:02;24.67;;;7.00;;
9823;SDS011;4951;50.778;7.196;2023-04-25T07:04:31;15.50;;;5.77;;
9823;SDS011;4951;50.778;7.196;2023-04-25T07:06:58;14.30;;;5.53;;
9823;SDS011;4951;50.778;7.196;2023-04-25T07:09:51;13.33;;;5.97;;
9823;SDS011;4951;50.778;7.196;2023-04-25T07:12:26;14.47;;;5.30;;
9823;SDS011;4951;50.778;7.196;2023-04-25T07:15:19;14.00;;;5.17;;
9823;SDS011;4951;50.778;7.196;2023-04-25T07:18:08;18.47;;;5.60;;
9823;SDS011;4951;50.778;7.196;2023-04-25T07:21:19;11.63;;;4.93;;
9823;SDS011;4951;50.778;7.196;2023-04-25T07:24:17;14.57;;;5.90;;
9823;SDS011;4951;50.778;7.196;2023-04-25T07:27:01;13.27;;;5.47;;
9823;SDS011;4951;50.778;7.196;2023-04-25T07:47:01;12.80;;;5.63;;
9823;SDS011;4951;50.778;7.196;2023-04-25T07:49:45;14.20;;;5.40;;
9823;SDS011;4951;50.778;7.196;2023-04-25T07:52:20;13.07;;;5.07;;
9823;SDS011;4951;50.778;7.196;2023-04-25T07:55:39;11.50;;;4.50;;
9823;SDS011;4951;50.778;7.196;2023-04-25T07:59:14;14.33;;;4.67;;
9823;SDS011;4951;50.778;7.196;2023-04-25T08:06:00;15.40;;;4.93;;
9823;SDS011;4951;50.778;7.196;2023-04-25T08:08:33;18.53;;;5.07;;
9823;SDS011;4951;50.778;7.196;2023-04-25T08:11:16;12.90;;;4.10;;
9823;SDS011;4951;50.778;7.196;2023-04-25T08:13:56;13.37;;;4.17;;
9823;SDS011;4951;50.778;7.196;2023-04-25T08:17:10;12.70;;;4.20;;
9823;SDS011;4951;50.778;7.196;2023-04-25T08:23:00;8.73;;;4.00;;
9823;SDS011;4951;50.778;7.196;2023-04-25T08:25:58;10.63;;;4.00;;
9823;SDS011;4951;50.778;7.196;2023-04-25T08:28:45;10.37;;;4.00;;
9823;SDS011;4951;50.778;7.196;2023-04-25T08:31:26;12.63;;;4.40;;
9823;SDS011;4951;50.778;7.196;2023-04-25T08:34:15;11.30;;;4.70;;
9823;SDS011;4951;50.778;7.196;2023-04-25T08:37:10;15.67;;;4.80;;
9823;SDS011;4951;50.778;7.196;2023-04-25T08:40:11;13.67;;;4.00;;
9823;SDS011;4951;50.778;7.196;2023-04-25T08:42:57;8.90;;;3.83;;
9823;SDS011;4951;50.778;7.196;2023-04-25T08:45:51;15.00;;;4.33;;
9823;SDS011;4951;50.778;7.196;2023-04-25T08:48:57;11.57;;;4.13;;
9823;SDS011;4951;50.778;7.196;2023-04-25T08:52:22;9.20;;;4.10;;
9823;SDS011;4951;50.778;7.196;2023-04-25T08:55:29;11.90;;;4.20;;
9823;SDS011;4951;50.778;7.196;2023-04-25T08:58:18;10.00;;;3.90;;
9823;SDS011;4951;50.778;7.196;2023-04-25T09:01:10;11.37;;;4.10;;
9823;SDS011;4951;50.778;7.196;2023-04-25T09:03:59;8.33;;;3.83;;
9823;SDS011;4951;50.778;7.196;2023-04-25T09:06:49;13.13;;;4.00;;
9823;SDS011;4951;50.778;7.196;2023-04-25T09:09:16;7.43;;;3.33;;
9823;SDS011;4951;50.778;7.196;2023-04-25T09:11:45;9.27;;;3.80;;
9823;SDS011;4951;50.778;7.196;2023-04-25T09:14:19;9.37;;;4.10;;
9823;SDS011;4951;50.778;7.196;2023-04-25T09:17:12;10.20;;;4.10;;
9823;SDS011;4951;50.778;7.196;2023-04-25T09:20:04;9.80;;;3.90;;
9823;SDS011;4951;50.778;7.196;2023-04-25T09:22:34;9.73;;;4.00;;
9823;SDS011;4951;50.778;7.196;2023-04-25T09:25:10;8.00;;;3.90;;
9823;SDS011;4951;50.778;7.196;2023-04-25T09:27:50;10.23;;;3.50;;
9823;SDS011;4951;50.778;7.196;2023-04-25T09:30:34;10.43;;;3.73;;
9823;SDS011;4951;50.778;7.196;2023-04-25T09:33:12;9.80;;;3.73;;
9823;SDS011;4951;50.778;7.196;2023-04-25T09:35:47;9.27;;;3.53;;
9823;SDS011;4951;50.778;7.196;2023-04-25T09:38:44;13.30;;;5.23;;
9823;SDS011;4951;50.778;7.196;2023-04-25T09:41:29;10.50;;;4.00;;
9823;SDS011;4951;50.778;7.196;2023-04-25T09:44:02;7.90;;;3.20;;
9823;SDS011;4951;50.778;7.196;2023-04-25T09:46:37;12.23;;;3.30;;
9823;SDS011;4951;50.778;7.196;2023-04-25T09:49:22;9.70;;;3.23;;
9823;SDS011;4951;50.778;7.196;2023-04-25T09:52:08;11.90;;;3.60;;
9823;SDS011;4951;50.778;7.196;2023-04-25T09:54:50;9.00;;;3.73;;
9823;SDS011;4951;50.778;7.196;2023-04-25T09:57:31;8.33;;;2.70;;
9823;SDS011;4951;50.778;7.196;2023-04-25T10:00:11;10.03;;;3.50;;
9823;SDS011;4951;50.778;7.196;2023-04-25T10:02:41;9.77;;;3.10;;
9823;SDS011;4951;50.778;7.196;2023-04-25T10:05:38;7.20;;;3.00;;
9823;SDS011;4951;50.778;7.196;2023-04-25T10:08:08;11.43;;;3.17;;
9823;SDS011;4951;50.778;7.196;2023-04-25T10:10:35;9.10;;;3.30;;
9823;SDS011;4951;50.778;7.196;2023-04-25T10:13:07;7.13;;;3.20;;
9823;SDS011;4951;50.778;7.196;2023-04-25T10:15:37;8.27;;;3.00;;
9823;SDS011;4951;50.778;7.196;2023-04-25T10:18:18;11.47;;;3.33;;
9823;SDS011;4951;50.778;7.196;2023-04-25T10:20:46;9.10;;;3.47;;
9823;SDS011;4951;50.778;7.196;2023-04-25T10:23:13;10.97;;;3.50;;
9823;SDS011;4951;50.778;7.196;2023-04-25T10:25:42;9.73;;;3.20;;
9823;SDS011;4951;50.778;7.196;2023-04-25T10:28:15;7.03;;;2.93;;
9823;SDS011;4951;50.778;7.196;2023-04-25T10:30:59;7.57;;;3.27;;
9823;SDS011;4951;50.778;7.196;2023-04-25T10:33:34;6.27;;;2.90;;
9823;SDS011;4951;50.778;7.196;2023-04-25T10:36:14;8.10;;;3.00;;
9823;SDS011;4951;50.778;7.196;2023-04-25T10:38:45;10.37;;;3.40;;
9823;SDS011;4951;50.778;7.196;2023-04-25T10:41:33;6.23;;;2.40;;
9823;SDS011;4951;50.778;7.196;2023-04-25T10:44:16;6.67;;;2.73;;
9823;SDS011;4951;50.778;7.196;2023-04-25T10:46:59;5.73;;;2.60;;
9823;SDS011;4951;50.778;7.196;2023-04-25T10:49:43;12.60;;;3.57;;
9823;SDS011;4951;50.778;7.196;2023-04-25T10:52:25;6.83;;;2.53;;
9823;SDS011;4951;50.778;7.196;2023-04-25T10:54:57;8.30;;;3.07;;
9823;SDS011;4951;50.778;7.196;2023-04-25T10:57:30;7.57;;;2.50;;
9823;SDS011;4951;50.778;7.196;2023-04-25T11:00:04;9.23;;;2.80;;
9823;SDS011;4951;50.778;7.196;2023-04-25T11:02:52;8.77;;;3.03;;
9823;SDS011;4951;50.778;7.196;2023-04-25T11:05:56;9.63;;;2.90;;
9823;SDS011;4951;50.778;7.196;2023-04-25T11:08:46;9.33;;;2.80;;
9823;SDS011;4951;50.778;7.196;2023-04-25T11:11:47;8.53;;;3.20;;
9823;SDS011;4951;50.778;7.196;2023-04-25T11:14:38;12.17;;;3.00;;
9823;SDS011;4951;50.778;7.196;2023-04-25T11:17:39;7.40;;;3.10;;
9823;SDS011;4951;50.778;7.196;2023-04-25T11:23:40;9.37;;;2.90;;
9823;SDS011;4951;50.778;7.196;2023-04-25T11:26:15;11.17;;;3.13;;
9823;SDS011;4951;50.778;7.196;2023-04-25T11:32:12;8.73;;;3.47;;
9823;SDS011;4951;50.778;7.196;2023-04-25T11:34:48;11.50;;;3.53;;
9823;SDS011;4951;50.778;7.196;2023-04-25T11:37:44;5.67;;;2.47;;
9823;SDS011;4951;50.778;7.196;2023-04-25T11:40:30;9.00;;;2.80;;
9823;SDS011;4951;50.778;7.196;2023-04-25T11:43:34;9.27;;;2.60;;
9823;SDS011;4951;50.778;7.196;2023-04-25T11:46:29;8.27;;;3.37;;
9823;SDS011;4951;50.778;7.196;2023-04-25T11:49:39;6.73;;;2.90;;
9823;SDS011;4951;50.778;7.196;2023-04-25T11:52:20;9.13;;;2.60;;
9823;SDS011;4951;50.778;7.196;2023-04-25T11:58:10;5.97;;;2.30;;
9823;SDS011;4951;50.778;7.196;2023-04-25T12:00:47;7.20;;;2.90;;
9823;SDS011;4951;50.778;7.196;2023-04-25T12:03:50;8.03;;;2.47;;
9823;SDS011;4951;50.778;7.196;2023-04-25T12:06:43;7.30;;;2.70;;
9823;SDS011;4951;50.778;7.196;2023-04-25T12:09:28;5.63;;;2.50;;
9823;SDS011;4951;50.778;7.196;2023-04-25T12:15:23;8.10;;;2.97;;
9823;SDS011;4951;50.778;7.196;2023-04-25T12:21:56;7.87;;;2.37;;
9823;SDS011;4951;50.778;7.196;2023-04-25T12:24:27;7.00;;;2.30;;
9823;SDS011;4951;50.778;7.196;2023-04-25T12:27:05;7.90;;;2.50;;
9823;SDS011;4951;50.778;7.196;2023-04-25T12:34:12;7.40;;;2.00;;
9823;SDS011;4951;50.778;7.196;2023-04-25T12:38:08;5.23;;;2.30;;
9823;SDS011;4951;50.778;7.196;2023-04-25T12:41:39;6.73;;;2.50;;
9823;SDS011;4951;50.778;7.196;2023-04-25T12:44:17;8.33;;;2.40;;
9823;SDS011;4951;50.778;7.196;2023-04-25T12:47:22;5.70;;;1.90;;
9823;SDS011;4951;50.778;7.196;2023-04-25T12:50:10;4.17;;;2.30;;
9823;SDS011;4951;50.778;7.196;2023-04-25T12:52:55;6.50;;;2.53;;
9823;SDS011;4951;50.778;7.196;2023-04-25T12:55:36;5.33;;;2.50;;
9823;SDS011;4951;50.778;7.196;2023-04-25T12:58:17;5.10;;;2.37;;
9823;SDS011;4951;50.778;7.196;2023-04-25T13:00:49;6.33;;;2.00;;
9823;SDS011;4951;50.778;7.196;2023-04-25T13:04:01;6.80;;;2.53;;
9823;SDS011;4951;50.778;7.196;2023-04-25T13:09:55;5.17;;;2.43;;
9823;SDS011;4951;50.778;7.196;2023-04-25T13:13:10;6.67;;;2.57;;
9823;SDS011;4951;50.778;7.196;2023-04-25T13:15:44;4.33;;;2.00;;
9823;SDS011;4951;50.778;7.196;2023-04-25T13:18:41;5.45;;;1.90;;
9823;SDS011;4951;50.778;7.196;2023-04-25T13:21:38;4.37;;;1.90;;
9823;SDS011;4951;50.778;7.196;2023-04-25T13:25:06;6.03;;;2.23;;
9823;SDS011;4951;50.778;7.196;2023-04-25T13:27:35;4.83;;;2.00;;
9823;SDS011;4951;50.778;7.196;2023-04-25T13:30:29;4.63;;;1.97;;
9823;SDS011;4951;50.778;7.196;2023-04-25T13:33:35;4.70;;;1.83;;
9823;SDS011;4951;50.778;7.196;2023-04-25T13:36:18;5.20;;;2.20;;
9823;SDS011;4951;50.778;7.196;2023-04-25T13:39:10;3.27;;;1.93;;
9823;SDS011;4951;50.778;7.196;2023-04-25T13:41:41;3.93;;;1.97;;
9823;SDS011;4951;50.778;7.196;2023-04-25T13:44:18;4.77;;;2.20;;
9823;SDS011;4951;50.778;7.196;2023-04-25T13:47:12;5.53;;;2.20;;
9823;SDS011;4951;50.778;7.196;2023-04-25T13:49:54;2.40;;;1.77;;
9823;SDS011;4951;50.778;7.196;2023-04-25T13:52:22;6.43;;;2.30;;
9823;SDS011;4951;50.778;7.196;2023-04-25T13:54:53;6.47;;;2.27;;
9823;SDS011;4951;50.778;7.196;2023-04-25T13:57:52;5.57;;;2.00;;
9823;SDS011;4951;50.778;7.196;2023-04-25T14:01:26;5.17;;;1.97;;
9823;SDS011;4951;50.778;7.196;2023-04-25T14:04:13;4.57;;;2.10;;
9823;SDS011;4951;50.778;7.196;2023-04-25T14:06:45;4.83;;;2.10;;
9823;SDS011;4951;50.778;7.196;2023-04-25T14:12:04;6.43;;;2.17;;
9823;SDS011;4951;50.778;7.196;2023-04-25T14:14:34;4.67;;;2.23;;
9823;SDS011;4951;50.778;7.196;2023-04-25T14:17:02;5.13;;;1.77;;
9823;SDS011;4951;50.778;7.196;2023-04-25T14:19:35;3.43;;;2.00;;
9823;SDS011;4951;50.778;7.196;2023-04-25T14:22:18;4.37;;;1.73;;
9823;SDS011;4951;50.778;7.196;2023-04-25T14:24:52;3.87;;;1.87;;
9823;SDS011;4951;50.778;7.196;2023-04-25T14:28:02;5.07;;;2.00;;
9823;SDS011;4951;50.778;7.196;2023-04-25T14:31:17;5.27;;;2.00;;
9823;SDS011;4951;50.778;7.196;2023-04-25T14:34:08;3.40;;;1.97;;
9823;SDS011;4951;50.778;7.196;2023-04-25T14:36:46;4.63;;;2.07;;
9823;SDS011;4951;50.778;7.196;2023-04-25T14:39:29;2.80;;;1.90;;
9823;SDS011;4951;50.778;7.196;2023-04-25T14:42:19;3.60;;;1.90;;
9823;SDS011;4951;50.778;7.196;2023-04-25T14:45:10;5.50;;;1.90;;
9823;SDS011;4951;50.778;7.196;2023-04-25T14:51:27;4.37;;;1.73;;
9823;SDS011;4951;50.778;7.196;2023-04-25T14:54:03;1.73;;;1.60;;
9823;SDS011;4951;50.778;7.196;2023-04-25T14:56:33;2.60;;;1.70;;
9823;SDS011;4951;50.778;7.196;2023-04-25T14:59:15;2.92;;;1.58;;
9823;SDS011;4951;50.778;7.196;2023-04-25T15:01:56;4.07;;;1.75;;
9823;SDS011;4951;50.778;7.196;2023-04-25T15:05:09;2.25;;;1.40;;
9823;SDS011;4951;50.778;7.196;2023-04-25T15:07:45;2.13;;;1.47;;
9823;SDS011;4951;50.778;7.196;2023-04-25T15:10:19;3.60;;;1.60;;
9823;SDS011;4951;50.778;7.196;2023-04-25T15:12:50;5.80;;;1.90;;
9823;SDS011;4951;50.778;7.196;2023-04-25T15:15:42;2.90;;;1.80;;
9823;SDS011;4951;50.778;7.196;2023-04-25T15:18:27;2.07;;;1.40;;
9823;SDS011;4951;50.778;7.196;2023-04-25T15:21:35;4.30;;;1.70;;
9823;SDS011;4951;50.778;7.196;2023-04-25T15:24:14;2.97;;;1.70;;
9823;SDS011;4951;50.778;7.196;2023-04-25T15:27:00;2.73;;;1.57;;
9823;SDS011;4951;50.778;7.196;2023-04-25T15:30:01;4.70;;;1.60;;
9823;SDS011;4951;50.778;7.196;2023-04-25T15:32:33;4.78;;;2.06;;
9823;SDS011;4951;50.778;7.196;2023-04-25T15:35:03;5.47;;;2.27;;
9823;SDS011;4951;50.778;7.196;2023-04-25T15:37:31;4.07;;;2.00;;
9823;SDS011;4951;50.778;7.196;2023-04-25T15:40:03;3.37;;;1.57;;
9823;SDS011;4951;50.778;7.196;2023-04-25T15:42:36;3.50;;;1.50;;
9823;SDS011;4951;50.778;7.196;2023-04-25T15:45:28;5.53;;;1.77;;
9823;SDS011;4951;50.778;7.196;2023-04-25T15:48:03;2.87;;;1.53;;
9823;SDS011;4951;50.778;7.196;2023-04-25T15:50:51;4.27;;;1.80;;
9823;SDS011;4951;50.778;7.196;2023-04-25T15:53:56;2.93;;;1.43;;
9823;SDS011;4951;50.778;7.196;2023-04-25T15:56:36;3.90;;;1.90;;
9823;SDS011;4951;50.778;7.196;2023-04-25T15:59:31;3.63;;;2.13;;
9823;SDS011;4951;50.778;7.196;2023-04-25T16:02:13;3.70;;;1.73;;
9823;SDS011;4951;50.778;7.196;2023-04-25T16:05:05;5.07;;;1.83;;
9823;SDS011;4951;50.778;7.196;2023-04-25T16:08:02;3.23;;;1.67;;
9823;SDS011;4951;50.778;7.196;2023-04-25T16:10:53;2.90;;;1.60;;
9823;SDS011;4951;50.778;7.196;2023-04-25T16:13:26;2.57;;;1.40;;
9823;SDS011;4951;50.778;7.196;2023-04-25T16:16:04;3.03;;;1.60;;
9823;SDS011;4951;50.778;7.196;2023-04-25T16:18:37;3.20;;;1.73;;
9823;SDS011;4951;50.778;7.196;2023-04-25T16:24:20;4.60;;;2.60;;
9823;SDS011;4951;50.778;7.196;2023-04-25T16:26:47;3.47;;;2.23;;
9823;SDS011;4951;50.778;7.196;2023-04-25T16:29:23;4.63;;;1.73;;
9823;SDS011;4951;50.778;7.196;2023-04-25T16:31:56;4.97;;;1.90;;
9823;SDS011;4951;50.778;7.196;2023-04-25T16:34:30;3.33;;;1.70;;
9823;SDS011;4951;50.778;7.196;2023-04-25T16:37:16;3.53;;;1.50;;
9823;SDS011;4951;50.778;7.196;2023-04-25T16:39:48;4.97;;;1.77;;
9823;SDS011;4951;50.778;7.196;2023-04-25T16:42:20;4.90;;;1.70;;
9823;SDS011;4951;50.778;7.196;2023-04-25T16:44:53;4.40;;;1.83;;
9823;SDS011;4951;50.778;7.196;2023-04-25T16:47:51;6.10;;;1.97;;
9823;SDS011;4951;50.778;7.196;2023-04-25T16:50:33;3.00;;;1.60;;
9823;SDS011;4951;50.778;7.196;2023-04-25T16:53:09;3.77;;;1.73;;
9823;SDS011;4951;50.778;7.196;2023-04-25T16:56:04;3.57;;;1.90;;
9823;SDS011;4951;50.778;7.196;2023-04-25T16:58:57;3.40;;;1.90;;
9823;SDS011;4951;50.778;7.196;2023-04-25T17:01:28;3.93;;;1.80;;
9823;SDS011;4951;50.778;7.196;2023-04-25T17:04:05;4.07;;;1.83;;
9823;SDS011;4951;50.778;7.196;2023-04-25T17:06:32;14.97;;;2.10;;
9823;SDS011;4951;50.778;7.196;2023-04-25T17:09:04;3.23;;;1.90;;
9823;SDS011;4951;50.778;7.196;2023-04-25T17:11:36;4.07;;;1.40;;
9823;SDS011;4951;50.778;7.196;2023-04-25T17:14:14;4.70;;;1.73;;
9823;SDS011;4951;50.778;7.196;2023-04-25T17:16:43;3.40;;;1.53;;
9823;SDS011;4951;50.778;7.196;2023-04-25T17:19:17;2.63;;;1.43;;
9823;SDS011;4951;50.778;7.196;2023-04-25T17:21:50;3.13;;;1.40;;
9823;SDS011;4951;50.778;7.196;2023-04-25T17:24:25;4.37;;;1.60;;
9823;SDS011;4951;50.778;7.196;2023-04-25T17:27:06;2.83;;;1.60;;
9823;SDS011;4951;50.778;7.196;2023-04-25T17:29:49;4.00;;;1.53;;
9823;SDS011;4951;50.778;7.196;2023-04-25T17:32:35;4.53;;;1.80;;
9823;SDS011;4951;50.778;7.196;2023-04-25T17:35:02;3.27;;;2.03;;
9823;SDS011;4951;50.778;7.196;2023-04-25T17:37:32;4.37;;;1.67;;
9823;SDS011;4951;50.778;7.196;2023-04-25T17:40:06;5.10;;;1.73;;
9823;SDS011;4951;50.778;7.196;2023-04-25T17:42:37;2.60;;;1.80;;
9823;SDS011;4951;50.778;7.196;2023-04-25T17:45:05;4.43;;;2.10;;
9823;SDS011;4951;50.778;7.196;2023-04-25T17:47:40;5.10;;;2.00;;
9823;SDS011;4951;50.778;7.196;2023-04-25T17:50:30;5.07;;;1.70;;
9823;SDS011;4951;50.778;7.196;2023-04-25T17:52:59;4.00;;;1.70;;
9823;SDS011;4951;50.778;7.196;2023-04-25T17:55:28;5.20;;;1.83;;
9823;SDS011;4951;50.778;7.196;2023-04-25T17:58:01;4.30;;;1.90;;
9823;SDS011;4951;50.778;7.196;2023-04-25T18:00:28;4.53;;;2.50;;
9823;SDS011;4951;50.778;7.196;2023-04-25T18:03:03;5.63;;;1.90;;
9823;SDS011;4951;50.778;7.196;2023-04-25T18:05:31;4.13;;;1.90;;
9823;SDS011;4951;50.778;7.196;2023-04-25T18:08:09;5.07;;;2.10;;
9823;SDS011;4951;50.778;7.196;2023-04-25T18:10:36;3.20;;;1.73;;
9823;SDS011;4951;50.778;7.196;2023-04-25T18:13:03;7.07;;;2.20;;
9823;SDS011;4951;50.778;7.196;2023-04-25T18:15:30;5.67;;;2.20;;
9823;SDS011;4951;50.778;7.196;2023-04-25T18:17:57;5.50;;;2.50;;